AUR120 EGJB-LFRD
Flight info
| Callsign | AUR120 |
|---|---|
| Flight time | 0h 26m |
| Altitude | 3000 |
| Route | DIN |
| Aircraft | BN2P/L-SFG/C |
Departure
| Time | 2026-05-03 21:21 |
|---|---|
| Airport | Guernsey Airport (EGJB) |
Arrival
| Time | 2026-05-03 21:47 |
|---|---|
| Airport | Dinard Pleurtuit Saint-Malo airport (LFRD) |
| Time | Latitude | Longitude | Altitude | Speed | Heading |
|---|---|---|---|---|---|
| 2026-05-03 21:15 | 49.43331 | -2.59269 | 327 ft | 0 kts | 340° |
| 2026-05-03 21:19 | 49.43347 | -2.59263 | 327 ft | 11 kts | 32° |
| 2026-05-03 21:19 | 49.43472 | -2.59202 | 331 ft | 27 kts | 354° |
| 2026-05-03 21:19 | 49.43523 | -2.59299 | 331 ft | 15 kts | 264° |
| 2026-05-03 21:19 | 49.43517 | -2.59446 | 328 ft | 42 kts | 268° |
| 2026-05-03 21:20 | 49.43496 | -2.60260 | 324 ft | 103 kts | 268° |
| 2026-05-03 21:20 | 49.43455 | -2.61464 | 454 ft | 121 kts | 266° |
| 2026-05-03 21:20 | 49.43361 | -2.62780 | 675 ft | 126 kts | 252° |
| 2026-05-03 21:20 | 49.42693 | -2.63572 | 846 ft | 134 kts | 187° |
| 2026-05-03 21:21 | 49.41867 | -2.62925 | 998 ft | 143 kts | 127° |
| 2026-05-03 21:21 | 49.41326 | -2.61646 | 1165 ft | 145 kts | 128° |
| 2026-05-03 21:21 | 49.40717 | -2.60363 | 1333 ft | 148 kts | 129° |
| 2026-05-03 21:21 | 49.40042 | -2.59168 | 1490 ft | 149 kts | 134° |
| 2026-05-03 21:22 | 49.39330 | -2.58037 | 1647 ft | 148 kts | 147° |
| 2026-05-03 21:22 | 49.38382 | -2.57484 | 1798 ft | 145 kts | 171° |
| 2026-05-03 21:22 | 49.37387 | -2.57261 | 1951 ft | 145 kts | 172° |
| 2026-05-03 21:22 | 49.36398 | -2.56971 | 2104 ft | 144 kts | 171° |
| 2026-05-03 21:23 | 49.35413 | -2.56686 | 2256 ft | 144 kts | 171° |
| 2026-05-03 21:23 | 49.34432 | -2.56400 | 2410 ft | 143 kts | 172° |
| 2026-05-03 21:23 | 49.33456 | -2.56103 | 2563 ft | 142 kts | 171° |
| 2026-05-03 21:23 | 49.32488 | -2.55806 | 2714 ft | 142 kts | 171° |
| 2026-05-03 21:24 | 49.31519 | -2.55508 | 2871 ft | 142 kts | 171° |
| 2026-05-03 21:24 | 49.30548 | -2.55211 | 2915 ft | 148 kts | 171° |
| 2026-05-03 21:24 | 49.29520 | -2.54898 | 2916 ft | 153 kts | 171° |
| 2026-05-03 21:24 | 49.28459 | -2.54580 | 2915 ft | 156 kts | 171° |
| 2026-05-03 21:25 | 49.27385 | -2.54263 | 2910 ft | 158 kts | 172° |
| 2026-05-03 21:25 | 49.26302 | -2.53940 | 2912 ft | 158 kts | 171° |
| 2026-05-03 21:25 | 49.25219 | -2.53619 | 2912 ft | 158 kts | 171° |
| 2026-05-03 21:25 | 49.24157 | -2.53304 | 2911 ft | 156 kts | 171° |
| 2026-05-03 21:26 | 49.23094 | -2.52989 | 2910 ft | 155 kts | 171° |
| 2026-05-03 21:26 | 49.22034 | -2.52671 | 2910 ft | 155 kts | 171° |
| 2026-05-03 21:26 | 49.20975 | -2.52355 | 2909 ft | 155 kts | 172° |
| 2026-05-03 21:26 | 49.19918 | -2.52031 | 2910 ft | 155 kts | 171° |
| 2026-05-03 21:27 | 49.19210 | -2.51817 | 2908 ft | 157 kts | 171° |
| 2026-05-03 21:27 | 49.17777 | -2.51391 | 2909 ft | 159 kts | 171° |
| 2026-05-03 21:27 | 49.17058 | -2.51174 | 2909 ft | 159 kts | 171° |
| 2026-05-03 21:27 | 49.15970 | -2.50851 | 2910 ft | 159 kts | 172° |
| 2026-05-03 21:28 | 49.14878 | -2.50521 | 2913 ft | 160 kts | 171° |
| 2026-05-03 21:28 | 49.13786 | -2.50194 | 2912 ft | 160 kts | 171° |
| 2026-05-03 21:28 | 49.12692 | -2.49866 | 2913 ft | 161 kts | 171° |
| 2026-05-03 21:28 | 49.11591 | -2.49533 | 2912 ft | 160 kts | 171° |
| 2026-05-03 21:29 | 49.10550 | -2.48984 | 2908 ft | 162 kts | 153° |
| 2026-05-03 21:29 | 49.09581 | -2.48087 | 2909 ft | 163 kts | 151° |
| 2026-05-03 21:29 | 49.08608 | -2.47191 | 2908 ft | 163 kts | 151° |
| 2026-05-03 21:29 | 49.07636 | -2.46296 | 2909 ft | 163 kts | 151° |
| 2026-05-03 21:30 | 49.06681 | -2.45416 | 2909 ft | 162 kts | 151° |
| 2026-05-03 21:30 | 49.05713 | -2.44526 | 2911 ft | 162 kts | 151° |
| 2026-05-03 21:30 | 49.04743 | -2.43651 | 2902 ft | 162 kts | 152° |
| 2026-05-03 21:30 | 49.03774 | -2.42777 | 2903 ft | 162 kts | 151° |
| 2026-05-03 21:31 | 49.02844 | -2.41815 | 2898 ft | 162 kts | 140° |
| 2026-05-03 21:31 | 49.02022 | -2.40636 | 2898 ft | 162 kts | 139° |
| 2026-05-03 21:31 | 49.01201 | -2.39445 | 2899 ft | 163 kts | 139° |
| 2026-05-03 21:31 | 49.00380 | -2.38255 | 2899 ft | 163 kts | 138° |
| 2026-05-03 21:32 | 48.99556 | -2.37060 | 2898 ft | 163 kts | 139° |
| 2026-05-03 21:32 | 48.98747 | -2.35888 | 2898 ft | 163 kts | 139° |
| 2026-05-03 21:32 | 48.97927 | -2.34699 | 2897 ft | 163 kts | 139° |
| 2026-05-03 21:32 | 48.97105 | -2.33508 | 2897 ft | 163 kts | 138° |
| 2026-05-03 21:33 | 48.96284 | -2.32322 | 2897 ft | 163 kts | 138° |
| 2026-05-03 21:33 | 48.95452 | -2.31151 | 2898 ft | 162 kts | 142° |
| 2026-05-03 21:33 | 48.94562 | -2.30094 | 2896 ft | 162 kts | 144° |
| 2026-05-03 21:33 | 48.93681 | -2.29058 | 2896 ft | 162 kts | 144° |
| 2026-05-03 21:34 | 48.92791 | -2.28014 | 2897 ft | 162 kts | 144° |
| 2026-05-03 21:34 | 48.91897 | -2.26970 | 2897 ft | 162 kts | 144° |
| 2026-05-03 21:34 | 48.91002 | -2.25922 | 2896 ft | 162 kts | 144° |
| 2026-05-03 21:34 | 48.90109 | -2.24874 | 2896 ft | 162 kts | 144° |
| 2026-05-03 21:35 | 48.89215 | -2.23825 | 2896 ft | 162 kts | 144° |
| 2026-05-03 21:35 | 48.88317 | -2.22777 | 2896 ft | 162 kts | 144° |
| 2026-05-03 21:35 | 48.87420 | -2.21731 | 2897 ft | 163 kts | 144° |
| 2026-05-03 21:35 | 48.86532 | -2.20692 | 2897 ft | 163 kts | 144° |
| 2026-05-03 21:36 | 48.85636 | -2.19645 | 2897 ft | 162 kts | 144° |
| 2026-05-03 21:36 | 48.84736 | -2.18618 | 2898 ft | 162 kts | 145° |
| 2026-05-03 21:36 | 48.83829 | -2.17600 | 2894 ft | 161 kts | 145° |
| 2026-05-03 21:36 | 48.82926 | -2.16588 | 2894 ft | 161 kts | 145° |
| 2026-05-03 21:37 | 48.82037 | -2.15587 | 2895 ft | 161 kts | 145° |
| 2026-05-03 21:37 | 48.81134 | -2.14572 | 2896 ft | 161 kts | 145° |
| 2026-05-03 21:37 | 48.80228 | -2.13553 | 2898 ft | 161 kts | 145° |
| 2026-05-03 21:37 | 48.79324 | -2.12544 | 2897 ft | 161 kts | 145° |
| 2026-05-03 21:38 | 48.78425 | -2.11535 | 2897 ft | 160 kts | 146° |
| 2026-05-03 21:38 | 48.77540 | -2.10537 | 2898 ft | 160 kts | 145° |
| 2026-05-03 21:38 | 48.76639 | -2.09524 | 2898 ft | 161 kts | 145° |
| 2026-05-03 21:38 | 48.75739 | -2.08510 | 2899 ft | 161 kts | 145° |
| 2026-05-03 21:39 | 48.74832 | -2.07495 | 2898 ft | 162 kts | 145° |
| 2026-05-03 21:39 | 48.73941 | -2.06490 | 2899 ft | 162 kts | 145° |
| 2026-05-03 21:39 | 48.73038 | -2.05470 | 2900 ft | 162 kts | 145° |
| 2026-05-03 21:39 | 48.72130 | -2.04449 | 2901 ft | 162 kts | 146° |
| 2026-05-03 21:40 | 48.71222 | -2.03426 | 2901 ft | 163 kts | 145° |
| 2026-05-03 21:40 | 48.70312 | -2.02402 | 2901 ft | 162 kts | 145° |
| 2026-05-03 21:40 | 48.69399 | -2.01404 | 2899 ft | 161 kts | 152° |
| 2026-05-03 21:40 | 48.68361 | -2.00873 | 2899 ft | 159 kts | 167° |
| 2026-05-03 21:41 | 48.67282 | -2.00548 | 2901 ft | 158 kts | 177° |
| 2026-05-03 21:41 | 48.66186 | -2.00457 | 2893 ft | 158 kts | 178° |
| 2026-05-03 21:41 | 48.65085 | -2.00319 | 2763 ft | 158 kts | 173° |
| 2026-05-03 21:41 | 48.64003 | -2.00028 | 2636 ft | 158 kts | 171° |
| 2026-05-03 21:42 | 48.62918 | -1.99742 | 2509 ft | 158 kts | 171° |
| 2026-05-03 21:42 | 48.61832 | -1.99469 | 2381 ft | 158 kts | 171° |
| 2026-05-03 21:42 | 48.60744 | -1.99200 | 2252 ft | 159 kts | 171° |
| 2026-05-03 21:42 | 48.59666 | -1.98935 | 2126 ft | 159 kts | 171° |
| 2026-05-03 21:43 | 48.58571 | -1.98670 | 1996 ft | 159 kts | 171° |
| 2026-05-03 21:43 | 48.57485 | -1.98412 | 1950 ft | 155 kts | 171° |
| 2026-05-03 21:43 | 48.56430 | -1.98161 | 1952 ft | 150 kts | 171° |
| 2026-05-03 21:43 | 48.55416 | -1.97921 | 1951 ft | 150 kts | 171° |
| 2026-05-03 21:44 | 48.54365 | -1.97692 | 1951 ft | 155 kts | 178° |
| 2026-05-03 21:44 | 48.53417 | -1.98347 | 1945 ft | 157 kts | 231° |
| 2026-05-03 21:44 | 48.53068 | -1.99887 | 1945 ft | 154 kts | 258° |
| 2026-05-03 21:44 | 48.52906 | -2.01392 | 1781 ft | 137 kts | 265° |
| 2026-05-03 21:45 | 48.52955 | -2.02660 | 1640 ft | 113 kts | 279° |
| 2026-05-03 21:45 | 48.53134 | -2.03797 | 1456 ft | 108 kts | 289° |
| 2026-05-03 21:45 | 48.53462 | -2.04781 | 1236 ft | 107 kts | 303° |
| 2026-05-03 21:45 | 48.53941 | -2.05669 | 1001 ft | 109 kts | 315° |
| 2026-05-03 21:46 | 48.54510 | -2.06380 | 893 ft | 104 kts | 324° |
| 2026-05-03 21:46 | 48.55127 | -2.06918 | 814 ft | 102 kts | 339° |
| 2026-05-03 21:46 | 48.55836 | -2.07226 | 596 ft | 109 kts | 348° |
| 2026-05-03 21:46 | 48.56563 | -2.07424 | 461 ft | 102 kts | 349° |
| 2026-05-03 21:47 | 48.57235 | -2.07593 | 337 ft | 95 kts | 350° |
| 2026-05-03 21:47 | 48.57877 | -2.07763 | 238 ft | 91 kts | 350° |
| 2026-05-03 21:47 | 48.58438 | -2.07907 | 217 ft | 72 kts | 350° |
| 2026-05-03 21:47 | 48.58863 | -2.08018 | 214 ft | 35 kts | 352° |
| 2026-05-03 21:48 | 48.59089 | -2.08077 | 214 ft | 30 kts | 350° |
| 2026-05-03 21:48 | 48.59171 | -2.08074 | 220 ft | 4 kts | 43° |
| 2026-05-03 21:48 | 48.59184 | -2.08048 | 213 ft | 2 kts | 61° |
| 2026-05-03 21:48 | 48.59186 | -2.08043 | 218 ft | 0 kts | 63° |